createdAt,value
2023-05-06T00:02:25.764Z,88.03
2023-05-06T00:07:27.678Z,91.23
2023-05-06T00:12:29.468Z,93.46
2023-05-06T00:17:31.428Z,94.05
2023-05-06T00:22:33.935Z,94.55
2023-05-06T00:27:35.798Z,95.01
2023-05-06T00:32:37.736Z,94.22
2023-05-06T00:37:39.576Z,93.14
2023-05-06T00:42:41.435Z,94.11
2023-05-06T00:47:43.468Z,93.17
2023-05-06T00:52:46.337Z,93.52
2023-05-06T00:57:51.780Z,92.28
2023-05-06T01:02:53.933Z,89.75
2023-05-06T01:08:29.726Z,90.20
2023-05-06T01:13:48.747Z,91.00
2023-05-06T01:18:54.803Z,91.70
2023-05-06T01:23:58.499Z,91.05
2023-05-06T01:29:02.420Z,90.33
2023-05-06T01:34:27.883Z,91.65
2023-05-06T01:39:33.615Z,90.91
2023-05-06T01:44:39.398Z,91.02
2023-05-06T01:49:41.885Z,89.63
2023-05-06T01:54:43.738Z,91.28
2023-05-06T01:59:45.610Z,90.49
2023-05-06T02:04:47.687Z,91.98
2023-05-06T02:09:49.725Z,93.85
2023-05-06T02:14:51.641Z,93.93
2023-05-06T02:19:53.456Z,93.45
2023-05-06T02:24:55.258Z,93.52
2023-05-06T02:29:57.036Z,95.32
2023-05-06T02:34:58.827Z,94.28
2023-05-06T02:40:00.606Z,94.46
2023-05-06T02:45:02.618Z,94.66
2023-05-06T02:50:04.983Z,94.51
2023-05-06T02:55:07.601Z,94.14
2023-05-06T03:00:13.066Z,94.52
2023-05-06T03:05:14.885Z,94.38
2023-05-06T03:10:16.776Z,94.11
2023-05-06T03:15:18.715Z,94.40
2023-05-06T03:20:21.388Z,94.38
2023-05-06T03:25:23.115Z,93.04
2023-05-06T03:30:24.864Z,92.48
2023-05-06T03:35:26.863Z,92.32
2023-05-06T03:40:29.114Z,92.70
2023-05-06T03:45:30.958Z,92.92
2023-05-06T03:50:32.845Z,93.30
2023-05-06T03:55:34.849Z,92.83
2023-05-06T04:00:36.753Z,92.92
2023-05-06T04:05:38.512Z,92.71
2023-05-06T04:10:41.210Z,92.11
2023-05-06T04:15:43.512Z,91.79
2023-05-06T04:20:48.630Z,91.96
2023-05-06T04:25:50.496Z,91.08
2023-05-06T04:30:52.827Z,91.62
2023-05-06T04:35:56.180Z,92.15
2023-05-06T04:40:58.400Z,91.12
2023-05-06T04:46:00.306Z,90.89
2023-05-06T04:51:04.258Z,91.12
2023-05-06T04:56:06.579Z,90.77
2023-05-06T05:01:10.455Z,91.04
2023-05-06T05:06:13.661Z,91.21
2023-05-06T05:11:18.417Z,90.02
2023-05-06T05:16:20.480Z,89.87
2023-05-06T05:21:22.272Z,89.04
2023-05-06T05:26:24.518Z,88.69
2023-05-06T05:31:26.394Z,89.07
2023-05-06T05:36:28.151Z,88.45
2023-05-06T05:41:29.929Z,88.92
2023-05-06T05:46:31.772Z,88.66
2023-05-06T05:51:34.118Z,88.28
2023-05-06T05:56:35.882Z,88.36
2023-05-06T06:01:37.635Z,88.42
2023-05-06T06:06:39.495Z,88.44
2023-05-06T06:11:41.255Z,88.69
2023-05-06T06:16:43.154Z,88.85
2023-05-06T06:21:45.130Z,88.68
2023-05-06T06:26:46.972Z,89.26
2023-05-06T06:31:49.248Z,89.33
2023-05-06T06:36:51.286Z,89.06
2023-05-06T06:41:58.142Z,89.58
2023-05-06T06:47:00.162Z,88.67
2023-05-06T06:52:02.016Z,89.63
2023-05-06T06:57:03.838Z,89.89
2023-05-06T07:02:12.510Z,89.12
2023-05-06T07:07:27.922Z,88.32
2023-05-06T07:12:37.216Z,87.74
2023-05-06T07:18:09.129Z,89.11
2023-05-06T07:23:14.366Z,89.64
2023-05-06T07:28:16.217Z,88.86
2023-05-06T07:33:18.232Z,88.51
2023-05-06T07:38:29.418Z,88.81
2023-05-06T07:43:31.214Z,89.46
2023-05-06T07:48:35.423Z,90.17
2023-05-06T07:53:40.047Z,90.49
2023-05-06T07:58:41.824Z,89.97
2023-05-06T08:03:47.479Z,89.59
2023-05-06T08:08:49.348Z,90.51
2023-05-06T08:13:51.187Z,90.73
2023-05-06T08:18:52.941Z,90.42
2023-05-06T08:23:55.269Z,90.50
2023-05-06T08:28:57.756Z,89.88
2023-05-06T08:33:59.881Z,90.27
2023-05-06T08:39:01.685Z,90.70
2023-05-06T08:44:05.633Z,90.31
2023-05-06T08:49:07.475Z,92.04
2023-05-06T08:54:12.849Z,91.18
2023-05-06T08:59:15.135Z,91.56
2023-05-06T09:04:19.082Z,92.05
2023-05-06T09:09:20.876Z,92.11
2023-05-06T09:14:23.405Z,92.82
2023-05-06T09:19:25.680Z,92.17
2023-05-06T09:24:27.630Z,92.08
2023-05-06T09:29:29.376Z,92.41
2023-05-06T09:34:31.144Z,93.15
2023-05-06T09:39:33.011Z,93.55
2023-05-06T09:44:34.914Z,93.80
2023-05-06T09:49:36.970Z,93.67
2023-05-06T09:54:41.044Z,93.82
2023-05-06T09:59:44.602Z,92.88
2023-05-06T10:04:49.063Z,93.33
2023-05-06T10:09:51.444Z,93.06
2023-05-06T10:14:53.323Z,92.79
2023-05-06T10:20:02.467Z,93.41
2023-05-06T10:25:35.563Z,93.01
2023-05-06T10:30:40.463Z,92.47
2023-05-06T10:35:42.282Z,92.61
2023-05-06T10:40:44.719Z,91.73
2023-05-06T10:46:11.920Z,91.65
2023-05-06T10:51:16.668Z,91.68
2023-05-06T10:56:18.538Z,91.07
2023-05-06T11:01:27.936Z,91.40
2023-05-06T11:06:49.061Z,90.68
2023-05-06T11:12:02.893Z,90.58
2023-05-06T11:17:29.067Z,90.86
2023-05-06T11:22:40.926Z,89.59
2023-05-06T11:27:42.676Z,90.22
2023-05-06T11:32:47.249Z,89.29
2023-05-06T11:37:52.071Z,89.11
2023-05-06T11:42:53.890Z,88.64
2023-05-06T11:47:55.870Z,88.84
2023-05-06T11:52:58.673Z,88.71
2023-05-06T11:58:00.582Z,88.32
2023-05-06T12:03:03.878Z,88.66
2023-05-06T12:08:13.339Z,88.10
2023-05-06T12:13:22.190Z,88.54
2023-05-06T12:18:25.540Z,88.98
2023-05-06T12:23:27.420Z,88.33
2023-05-06T12:28:30.873Z,88.79
2023-05-06T12:33:46.508Z,87.51
2023-05-06T12:39:01.533Z,87.96
2023-05-06T12:44:25.613Z,87.29
2023-05-06T12:49:45.718Z,86.42
2023-05-06T12:54:48.948Z,86.92
2023-05-06T12:59:50.972Z,86.56
2023-05-06T13:04:52.850Z,86.54
2023-05-06T13:09:54.687Z,86.26
2023-05-06T13:14:56.514Z,86.24
2023-05-06T13:19:58.407Z,86.31
2023-05-06T13:25:00.271Z,85.57
2023-05-06T13:30:02.209Z,84.82
2023-05-06T13:35:05.680Z,85.86
2023-05-06T13:40:08.836Z,86.10
2023-05-06T13:45:11.433Z,85.79
2023-05-06T13:50:13.266Z,85.99
2023-05-06T13:55:16.859Z,85.46
2023-05-06T14:00:20.030Z,83.59
2023-05-06T14:05:22.015Z,83.84
2023-05-06T14:10:23.936Z,83.47
2023-05-06T14:15:25.895Z,84.06
2023-05-06T14:20:27.723Z,83.62
2023-05-06T14:25:29.436Z,84.10
2023-05-06T14:30:32.322Z,84.07
2023-05-06T14:35:34.122Z,83.69
2023-05-06T14:40:36.910Z,84.52
2023-05-06T14:45:39.028Z,84.28
2023-05-06T14:50:41.135Z,85.23
2023-05-06T14:55:42.929Z,85.04
2023-05-06T15:00:45.306Z,84.92
2023-05-06T15:05:47.223Z,84.23
2023-05-06T15:10:49.618Z,84.76
2023-05-06T15:15:51.451Z,84.82
2023-05-06T15:20:54.947Z,84.63
2023-05-06T15:25:58.136Z,84.35
2023-05-06T15:30:59.932Z,84.53
2023-05-06T15:36:01.779Z,85.02
2023-05-06T15:41:03.577Z,85.07
2023-05-06T15:46:05.479Z,84.54
2023-05-06T15:51:07.240Z,83.61
2023-05-06T15:56:18.284Z,83.71
2023-05-06T16:01:31.595Z,83.79
2023-05-06T16:06:42.948Z,83.65
2023-05-06T16:11:44.999Z,83.87
2023-05-06T16:16:46.921Z,84.19
2023-05-06T16:21:48.784Z,83.51
2023-05-06T16:26:50.583Z,83.34
2023-05-06T16:31:52.390Z,83.93
2023-05-06T16:36:54.411Z,83.85
2023-05-06T16:41:56.249Z,83.48
2023-05-06T16:46:58.037Z,83.33
2023-05-06T16:52:00.714Z,83.14
2023-05-06T16:57:03.823Z,83.08
2023-05-06T17:02:05.634Z,83.58
2023-05-06T17:07:07.500Z,83.54
2023-05-06T17:12:10.055Z,83.90
2023-05-06T17:17:11.892Z,83.93
2023-05-06T17:22:13.669Z,83.56
2023-05-06T17:27:15.473Z,83.63
2023-05-06T17:32:17.383Z,83.56
2023-05-06T17:37:19.134Z,83.45
2023-05-06T17:42:20.898Z,83.74
2023-05-06T17:47:22.917Z,84.20
2023-05-06T17:52:28.158Z,84.54
2023-05-06T17:57:30.370Z,83.99
2023-05-06T18:02:32.271Z,84.43
2023-05-06T18:07:36.763Z,84.47
2023-05-06T18:12:38.855Z,83.12
2023-05-06T18:17:40.753Z,84.22
2023-05-06T18:22:42.964Z,84.59
2023-05-06T18:27:44.876Z,83.78
2023-05-06T18:32:48.226Z,84.15
2023-05-06T18:37:52.424Z,84.19
2023-05-06T18:42:56.472Z,84.32
2023-05-06T18:47:58.304Z,85.10
2023-05-06T18:53:00.341Z,85.01
2023-05-06T18:58:05.565Z,84.75
2023-05-06T19:03:07.381Z,84.97
2023-05-06T19:08:10.275Z,84.71
2023-05-06T19:13:12.277Z,84.98
2023-05-06T19:18:14.132Z,85.60
2023-05-06T19:23:15.924Z,85.48
2023-05-06T19:28:18.062Z,85.59
2023-05-06T19:33:19.868Z,86.20
2023-05-06T19:38:21.664Z,85.46
2023-05-06T19:43:24.440Z,86.25
2023-05-06T19:48:26.235Z,86.59
2023-05-06T19:53:28.191Z,86.89
2023-05-06T19:58:30.174Z,86.54
2023-05-06T20:03:33.325Z,87.62
2023-05-06T20:08:35.504Z,87.39
2023-05-06T20:13:37.466Z,87.23
2023-05-06T20:18:40.742Z,87.15
2023-05-06T20:23:42.704Z,87.27
2023-05-06T20:28:44.451Z,88.03
2023-05-06T20:33:46.316Z,88.50
2023-05-06T20:38:49.969Z,88.76
2023-05-06T20:43:52.900Z,89.21
2023-05-06T20:48:54.710Z,89.09
2023-05-06T20:53:58.254Z,89.66
2023-05-06T20:59:00.828Z,89.75
2023-05-06T21:04:04.664Z,89.26
2023-05-06T21:09:06.781Z,89.50
2023-05-06T21:14:08.710Z,89.62
2023-05-06T21:19:10.550Z,90.03
2023-05-06T21:24:12.853Z,89.81
2023-05-06T21:29:14.664Z,89.99
2023-05-06T21:34:16.507Z,90.57
2023-05-06T21:39:18.364Z,90.76
2023-05-06T21:44:20.505Z,90.49
2023-05-06T21:49:22.424Z,91.22
2023-05-06T21:54:25.011Z,90.98
2023-05-06T21:59:26.830Z,91.49
2023-05-06T22:04:28.630Z,91.21
2023-05-06T22:09:30.556Z,91.23
2023-05-06T22:14:40.504Z,90.95
2023-05-06T22:19:43.465Z,90.62
2023-05-06T22:24:48.046Z,91.27
2023-05-06T22:29:50.005Z,91.56
2023-05-06T22:34:51.830Z,91.65
2023-05-06T22:39:57.184Z,91.08
2023-05-06T22:44:58.983Z,91.05
2023-05-06T22:50:01.076Z,90.93
2023-05-06T22:55:02.966Z,90.80
2023-05-06T23:00:07.105Z,90.73
2023-05-06T23:05:09.601Z,90.40
2023-05-06T23:10:11.977Z,90.00
2023-05-06T23:15:13.829Z,90.50
2023-05-06T23:20:17.066Z,90.07
2023-05-06T23:25:19.525Z,89.36
2023-05-06T23:30:21.283Z,89.22
2023-05-06T23:35:23.041Z,89.80
2023-05-06T23:40:24.884Z,89.15
2023-05-06T23:45:26.858Z,88.93
2023-05-06T23:50:28.650Z,89.31
2023-05-06T23:55:31.160Z,88.47
